Time;durP1;ratioP1;P1;durP2;ratioP2;P2;SDS_P1;SDS_P2;PMS_P1;PMS_P2;Temp;Humidity;BMP_temperature;BMP_pressure;BME280_temperature;BME280_humidity;BME280_pressure;Samples;Min_cycle;Max_cycle;Signal;HPM_P1;HPM_P2
2023/02/07 00:01:54;;;;;;;10.23;3.80;;;;;;;-1.84;100.00;100742.19;5049774;28;20116;-65
2023/02/07 00:04:20;;;;;;;8.77;4.00;;;;;;;-2.01;100.00;100722.66;5044486;28;20048;-65
2023/02/07 00:06:47;;;;;;;8.27;4.38;;;;;;;-1.83;100.00;100738.63;5047528;28;20028;-65
2023/02/07 00:09:13;;;;;;;9.82;4.68;;;;;;;-1.73;100.00;100739.00;5047686;28;20044;-65
2023/02/07 00:11:39;;;;;;;10.43;4.47;;;;;;;-1.83;100.00;100747.44;5043926;28;20469;-65
2023/02/07 00:14:07;;;;;;;8.18;4.10;;;;;;;-1.87;100.00;100742.34;5044748;28;20032;-65
2023/02/07 00:16:32;;;;;;;10.18;4.57;;;;;;;-1.98;100.00;100740.22;5038849;28;20377;-65
2023/02/07 00:18:58;;;;;;;10.35;4.47;;;;;;;-2.04;100.00;100744.03;5040443;28;20029;-65
2023/02/07 00:21:25;;;;;;;10.80;4.78;;;;;;;-2.10;100.00;100740.81;5041889;28;20438;-65
2023/02/07 00:23:52;;;;;;;9.30;4.88;;;;;;;-2.11;100.00;100747.06;5046595;28;20068;-65
2023/02/07 00:26:19;;;;;;;10.30;4.38;;;;;;;-2.12;100.00;100738.25;5047176;28;20064;-65
2023/02/07 00:28:46;;;;;;;11.02;4.53;;;;;;;-2.08;100.00;100725.69;5051318;28;20025;-65
2023/02/07 00:31:15;;;;;;;8.98;4.90;;;;;;;-2.04;100.00;100743.19;5044752;28;20063;-65
2023/02/07 00:33:41;;;;;;;;;;;;;;;-2.09;100.00;100732.81;5045500;28;20468;-65
2023/02/07 00:36:11;;;;;;;11.23;4.45;;;;;;;-2.10;100.00;100719.59;5040658;28;19917;-65
2023/02/07 00:38:36;;;;;;;9.15;4.72;;;;;;;-2.08;100.00;100717.75;5046929;28;20546;-65
2023/02/07 00:41:02;;;;;;;11.32;5.20;;;;;;;-2.05;100.00;100713.13;5044457;28;20029;-65
2023/02/07 00:43:29;;;;;;;12.35;5.30;;;;;;;-2.12;100.00;100722.34;5045650;28;20115;-65
2023/02/07 00:45:55;;;;;;;15.48;5.57;;;;;;;-2.14;100.00;100710.09;5040581;28;20028;-65
2023/02/07 00:48:21;;;;;;;10.32;5.13;;;;;;;-2.24;100.00;100714.97;5033459;28;20021;-65
2023/02/07 00:50:46;;;;;;;9.38;4.72;;;;;;;-2.29;100.00;100706.41;5043748;28;20036;-65
2023/02/07 00:53:11;;;;;;;14.65;6.38;;;;;;;-2.27;100.00;100715.13;5057161;28;20020;-65
2023/02/07 00:55:37;;;;;;;11.45;5.32;;;;;;;-2.26;100.00;100711.53;5044252;28;20021;-65
2023/02/07 00:58:02;;;;;;;14.60;6.55;;;;;;;-2.23;100.00;100722.00;5039882;28;20060;-65
2023/02/07 01:00:28;;;;;;;10.82;5.72;;;;;;;-2.23;100.00;100727.28;5046605;28;20017;-65
2023/02/07 01:02:53;;;;;;;11.65;5.68;;;;;;;-2.39;100.00;100735.13;5044990;28;20488;-65
2023/02/07 01:05:18;;;;;;;17.17;6.45;;;;;;;-2.50;100.00;100742.75;5048572;28;20021;-65
2023/02/07 01:07:44;;;;;;;16.15;6.68;;;;;;;-2.62;100.00;100746.84;5053476;28;20039;-65
2023/02/07 01:10:10;;;;;;;13.73;6.18;;;;;;;-2.69;100.00;100748.91;5046380;28;20029;-65
2023/02/07 01:12:35;;;;;;;13.25;6.05;;;;;;;-2.78;100.00;100765.22;5040826;28;20024;-65
2023/02/07 01:15:01;;;;;;;11.88;6.25;;;;;;;-2.81;100.00;100762.69;5045925;28;20056;-65
2023/02/07 01:17:26;;;;;;;14.80;7.15;;;;;;;-2.89;100.00;100752.47;5039031;28;20040;-65
2023/02/07 01:19:57;;;;;;;13.18;6.47;;;;;;;-2.84;100.00;100741.66;5043361;28;20025;-64
2023/02/07 01:22:24;;;;;;;19.13;7.03;;;;;;;-2.70;100.00;100747.19;5054661;28;20035;-65
2023/02/07 01:24:52;;;;;;;14.95;6.82;;;;;;;-2.69;100.00;100738.31;5051815;28;20047;-65
2023/02/07 01:27:17;;;;;;;15.85;7.18;;;;;;;-2.67;100.00;100736.44;5043523;28;20029;-65
2023/02/07 01:29:43;;;;;;;19.70;6.88;;;;;;;-2.63;100.00;100737.16;5039141;28;20028;-65
2023/02/07 01:32:09;;;;;;;15.48;6.50;;;;;;;-2.60;100.00;100731.72;5039358;28;20046;-65
2023/02/07 01:34:34;;;;;;;12.35;6.18;;;;;;;-2.67;100.00;100739.09;5042170;28;20053;-65
2023/02/07 01:37:00;;;;;;;13.95;6.57;;;;;;;-2.61;100.00;100737.94;5052351;28;20479;-64
2023/02/07 01:39:25;;;;;;;17.67;6.93;;;;;;;-2.52;100.00;100737.50;5048591;28;20123;-65
2023/02/07 01:41:50;;;;;;;13.95;6.47;;;;;;;-2.65;100.00;100747.84;5049060;28;20025;-65
2023/02/07 01:44:22;;;;;;;11.30;6.43;;;;;;;-2.75;100.00;100740.38;5036391;28;20018;-65
2023/02/07 01:46:49;;;;;;;14.07;7.05;;;;;;;-2.82;100.00;100744.25;5046647;28;22235;-65
2023/02/07 01:49:17;;;;;;;19.60;6.95;;;;;;;-2.84;100.00;100738.16;5038434;28;20144;-65
2023/02/07 01:51:48;;;;;;;11.77;5.77;;;;;;;-2.80;100.00;100743.25;5047833;28;20021;-64
2023/02/07 01:54:15;;;;;;;13.68;6.75;;;;;;;-2.80;100.00;100731.78;5045667;28;20770;-65
2023/02/07 01:56:50;;;;;;;15.77;7.25;;;;;;;-2.82;100.00;100738.94;5034533;28;20466;-65
2023/02/07 01:59:16;;;;;;;13.48;6.43;;;;;;;-2.81;100.00;100745.97;5040040;28;20024;-65
2023/02/07 02:01:43;;;;;;;14.95;6.90;;;;;;;-2.82;100.00;100734.50;5045568;28;20063;-64
2023/02/07 02:04:08;;;;;;;12.80;7.35;;;;;;;-2.77;100.00;100727.22;5033339;28;20434;-65
2023/02/07 02:06:34;;;;;;;15.18;6.90;;;;;;;-2.81;100.00;100732.72;5048559;28;20033;-65
2023/02/07 02:09:01;;;;;;;13.82;7.00;;;;;;;-2.79;100.00;100733.50;5035072;28;20025;-64
2023/02/07 02:11:48;;;;;;;13.00;6.18;;;;;;;-2.84;100.00;100717.81;5051201;28;20021;-65
2023/02/07 02:14:19;;;;;;;16.42;7.45;;;;;;;-2.81;100.00;100730.06;5044756;28;20033;-64
2023/02/07 02:17:03;;;;;;;14.25;7.75;;;;;;;-2.85;100.00;100720.56;5042474;28;20904;-65
2023/02/07 02:19:56;;;;;;;15.00;7.47;;;;;;;-2.84;100.00;100725.78;5031237;28;20025;-64
2023/02/07 02:22:36;;;;;;;12.70;7.13;;;;;;;-2.82;100.00;100715.97;5038139;28;20029;-65
2023/02/07 02:25:01;;;;;;;17.05;7.28;;;;;;;-2.76;100.00;100720.97;5042363;28;20037;-64
2023/02/07 02:28:19;;;;;;;12.38;6.75;;;;;;;-2.77;100.00;100715.75;5047262;28;20040;-64
2023/02/07 02:31:13;;;;;;;11.98;5.47;;;;;;;-2.79;100.00;100707.88;5044993;28;20032;-64
2023/02/07 02:33:51;;;;;;;15.13;7.30;;;;;;;-2.90;100.00;100712.81;5043020;28;20034;-64
2023/02/07 02:36:37;;;;;;;14.90;6.95;;;;;;;-2.93;100.00;100720.91;5052124;28;20040;-64
2023/02/07 02:39:39;;;;;;;16.02;7.72;;;;;;;-2.99;100.00;100719.38;5048162;28;20036;-64
2023/02/07 02:42:30;;;;;;;14.30;7.55;;;;;;;-3.09;100.00;100723.41;5046317;28;20559;-65
2023/02/07 02:45:16;;;;;;;15.35;7.80;;;;;;;-3.16;100.00;100740.47;5036770;28;20029;-65
2023/02/07 02:47:45;;;;;;;19.40;9.02;;;;;;;-3.18;100.00;100750.28;5034942;28;20029;-65
2023/02/07 02:50:20;;;;;;;19.58;8.82;;;;;;;-3.28;100.00;100746.31;5050725;28;20033;-65
2023/02/07 02:52:45;;;;;;;20.33;7.80;;;;;;;-3.44;100.00;100754.06;5038229;28;20025;-65
2023/02/07 02:55:12;;;;;;;23.08;9.10;;;;;;;-3.43;100.00;100763.69;5051888;28;20111;-65
2023/02/07 02:57:38;;;;;;;16.63;8.20;;;;;;;-3.43;100.00;100769.00;5051732;28;20537;-65
2023/02/07 03:00:35;;;;;;;19.42;8.75;;;;;;;-3.42;100.00;100771.59;5049557;28;20151;-65
2023/02/07 03:03:17;;;;;;;23.80;8.70;;;;;;;-3.57;100.00;100783.69;5042056;28;20028;-65
2023/02/07 03:06:04;;;;;;;18.55;8.23;;;;;;;-3.46;100.00;100782.34;5047951;28;20036;-65
2023/02/07 03:08:53;;;;;;;17.70;8.38;;;;;;;-3.60;100.00;100782.97;5068049;22;20399;-58
2023/02/07 03:11:23;;;;;;;18.15;8.23;;;;;;;-3.75;100.00;100780.03;5071021;28;20441;-58
2023/02/07 03:13:54;;;;;;;17.40;8.43;;;;;;;-3.75;100.00;100772.09;5076556;28;20047;-58
2023/02/07 03:16:22;;;;;;;20.77;9.10;;;;;;;-3.69;100.00;100775.38;5078380;28;20034;-58
2023/02/07 03:19:00;;;;;;;18.75;8.80;;;;;;;-3.64;100.00;100781.34;5077816;28;20024;-58
2023/02/07 03:21:43;;;;;;;20.20;8.57;;;;;;;-3.65;100.00;100785.78;5079243;28;20423;-58
2023/02/07 03:24:25;;;;;;;16.58;8.32;;;;;;;-3.67;100.00;100777.03;5068426;28;20020;-58
2023/02/07 03:26:55;;;;;;;13.70;7.53;;;;;;;-3.63;100.00;100778.66;5076160;28;20023;-58
2023/02/07 03:29:22;;;;;;;17.40;7.88;;;;;;;-3.61;100.00;100776.81;5077074;28;20089;-58
2023/02/07 03:31:52;;;;;;;16.50;7.70;;;;;;;-3.62;100.00;100771.56;5083563;28;20394;-58
2023/02/07 03:34:22;;;;;;;17.98;8.55;;;;;;;-3.64;100.00;100782.22;5078376;28;20031;-58
2023/02/07 03:37:25;;;;;;;18.42;7.70;;;;;;;-3.65;100.00;100777.84;5081996;28;20054;-59
2023/02/07 03:39:50;;;;;;;17.58;7.75;;;;;;;-3.71;100.00;100779.91;5034402;28;20072;-58
2023/02/07 03:42:37;;;;;;;18.42;6.65;;;;;;;-3.52;100.00;100773.75;5071934;28;20598;-57
2023/02/07 03:45:06;;;;;;;15.25;7.35;;;;;;;-3.60;100.00;100775.03;5084251;28;20028;-58
2023/02/07 03:47:32;;;;;;;15.85;7.38;;;;;;;-3.73;100.00;100784.41;5060394;28;20439;-58
2023/02/07 03:49:57;;;;;;;17.90;7.90;;;;;;;-3.68;100.00;100785.06;5074146;28;20048;-58
2023/02/07 03:52:22;;;;;;;15.98;7.53;;;;;;;-3.67;100.00;100784.13;5072173;28;20467;-58
2023/02/07 03:54:48;;;;;;;16.27;7.43;;;;;;;-3.73;100.00;100787.03;5075179;28;20032;-58
2023/02/07 03:57:13;;;;;;;15.48;7.57;;;;;;;-3.78;100.00;100780.16;5077684;28;20019;-58
2023/02/07 03:59:39;;;;;;;17.90;7.93;;;;;;;-3.83;100.00;100771.53;5075797;28;20550;-58
2023/02/07 04:02:04;;;;;;;19.35;8.80;;;;;;;-4.03;100.00;100758.31;5072857;28;20048;-58
2023/02/07 04:04:30;;;;;;;15.93;7.78;;;;;;;-4.01;100.00;100762.59;5072286;28;20036;-58
2023/02/07 04:06:55;;;;;;;18.17;8.00;;;;;;;-3.87;100.00;100758.53;5070897;28;20387;-57
2023/02/07 04:09:21;;;;;;;15.50;7.40;;;;;;;-3.90;100.00;100753.34;5071449;28;20044;-58
2023/02/07 04:11:51;;;;;;;18.52;7.97;;;;;;;-4.02;100.00;100752.94;5075360;28;20020;-58
2023/02/07 04:14:19;;;;;;;15.93;7.97;;;;;;;-4.15;100.00;100754.34;5071630;28;20025;-58
2023/02/07 04:16:46;;;;;;;17.27;8.38;;;;;;;-4.19;100.00;100766.00;5066571;28;20032;-61
2023/02/07 04:19:11;;;;;;;19.50;7.82;;;;;;;-4.38;100.00;100767.63;5067081;28;20043;-58
2023/02/07 04:21:37;;;;;;;16.40;8.00;;;;;;;-4.22;100.00;100764.34;5066309;28;20036;-58
2023/02/07 04:24:02;;;;;;;21.00;8.25;;;;;;;-4.10;100.00;100770.03;5068773;28;20024;-57
2023/02/07 04:26:28;;;;;;;18.45;8.43;;;;;;;-4.11;100.00;100776.22;5075240;28;20490;-58
2023/02/07 04:28:53;;;;;;;18.98;8.45;;;;;;;-4.26;100.00;100765.38;5068517;28;20032;-58
2023/02/07 04:31:18;;;;;;;21.75;8.18;;;;;;;-4.28;100.00;100766.34;5075145;28;20019;-59
2023/02/07 04:33:44;;;;;;;15.98;7.70;;;;;;;-4.28;100.00;100772.47;5073330;28;20020;-58
2023/02/07 04:36:09;;;;;;;17.23;8.10;;;;;;;-4.37;100.00;100766.72;5062248;28;20035;-58
2023/02/07 04:38:35;;;;;;;15.85;8.05;;;;;;;-4.49;100.00;100765.41;5080549;28;20027;-58
2023/02/07 04:41:03;;;;;;;20.20;8.20;;;;;;;-4.55;100.00;100757.72;5072871;28;20023;-58
2023/02/07 04:43:29;;;;;;;17.88;8.13;;;;;;;-4.63;100.00;100766.78;5074648;28;20491;-58
2023/02/07 04:45:54;;;;;;;21.60;8.98;;;;;;;-4.64;100.00;100761.56;5075071;28;20077;-58
2023/02/07 04:48:20;;;;;;;17.77;8.27;;;;;;;-4.51;100.00;100769.88;5083672;28;20032;-58
2023/02/07 04:50:45;;;;;;;18.95;8.98;;;;;;;-4.49;100.00;100768.91;5074280;28;20032;-59
2023/02/07 04:53:10;;;;;;;19.70;9.02;;;;;;;-4.48;100.00;100772.41;5074858;28;20033;-58
2023/02/07 04:55:36;;;;;;;14.93;7.93;;;;;;;-4.58;100.00;100769.28;5068550;28;20719;-58
2023/02/07 04:58:03;;;;;;;22.52;8.45;;;;;;;-4.57;100.00;100764.84;5069062;28;20020;-58
2023/02/07 05:00:28;;;;;;;18.17;7.40;;;;;;;-4.55;100.00;100769.16;5064400;28;20538;-57
2023/02/07 05:02:54;;;;;;;15.70;7.50;;;;;;;-4.50;100.00;100768.97;5072844;28;20106;-57
2023/02/07 05:05:19;;;;;;;23.80;8.35;;;;;;;-4.50;100.00;100768.97;5068966;28;20039;-57
2023/02/07 05:07:45;;;;;;;14.50;7.35;;;;;;;-4.36;100.00;100758.72;5082027;28;20039;-57
2023/02/07 05:10:10;;;;;;;15.05;7.40;;;;;;;-4.32;100.00;100762.97;5069135;28;20038;-57
2023/02/07 05:12:35;;;;;;;17.10;6.78;;;;;;;-4.30;100.00;100769.03;5063896;28;20035;-57
2023/02/07 05:15:01;;;;;;;18.23;7.28;;;;;;;-4.35;100.00;100768.34;5070244;28;20043;-57
2023/02/07 05:17:26;;;;;;;17.13;7.63;;;;;;;-4.32;100.00;100762.09;5069081;28;20028;-57
2023/02/07 05:19:51;;;;;;;15.50;7.30;;;;;;;-4.35;100.00;100757.78;5075385;28;20027;-57
2023/02/07 05:22:17;;;;;;;16.88;7.22;;;;;;;-4.34;100.00;100743.66;5073223;28;20051;-57
2023/02/07 05:24:42;;;;;;;20.98;9.10;;;;;;;-4.39;100.00;100745.63;5069159;28;20055;-58
2023/02/07 05:27:08;;;;;;;19.58;7.80;;;;;;;-4.41;100.00;100744.81;5073489;28;20394;-58
2023/02/07 05:29:33;;;;;;;15.60;7.25;;;;;;;-4.37;100.00;100754.38;5076871;28;20028;-57
2023/02/07 05:34:42;;;;;;;22.75;8.57;;;;;;;-4.50;100.00;100759.28;5091487;28;20050;-58
2023/02/07 05:37:08;;;;;;;15.25;7.40;;;;;;;-4.64;100.00;100758.91;5080103;28;20024;-58
2023/02/07 05:39:33;;;;;;;16.33;7.22;;;;;;;-4.54;100.00;100755.00;5069490;28;20034;-58
2023/02/07 05:41:58;;;;;;;16.55;7.20;;;;;;;-4.62;100.00;100755.31;5065099;28;20021;-61
2023/02/07 05:44:24;;;;;;;16.13;8.02;;;;;;;-4.54;100.00;100760.28;5072444;28;20035;-58
2023/02/07 05:46:49;;;;;;;14.32;6.38;;;;;;;-4.52;100.00;100765.53;5072056;28;20658;-58
2023/02/07 05:49:14;;;;;;;16.27;7.78;;;;;;;-4.60;100.00;100757.03;5062945;28;20050;-58
2023/02/07 05:51:40;;;;;;;15.68;6.68;;;;;;;-4.64;100.00;100761.56;5069827;28;20033;-58
2023/02/07 05:54:05;;;;;;;13.40;6.15;;;;;;;-4.65;100.00;100744.88;5069263;28;20554;-58
2023/02/07 05:56:30;;;;;;;16.98;8.80;;;;;;;-4.63;100.00;100743.03;5064663;28;20059;-60
2023/02/07 05:58:56;;;;;;;14.20;6.75;;;;;;;-4.52;100.00;100755.81;5065888;28;20471;-58
2023/02/07 06:01:21;;;;;;;15.02;7.68;;;;;;;-4.53;100.00;100755.88;5067034;28;20070;-58
2023/02/07 06:03:46;;;;;;;19.30;7.97;;;;;;;-4.66;100.00;100750.22;5066122;28;20691;-58
2023/02/07 06:06:12;;;;;;;16.55;7.20;;;;;;;-4.72;100.00;100758.34;5083390;28;20077;-58
2023/02/07 06:08:37;;;;;;;16.25;7.85;;;;;;;-4.71;100.00;100757.47;5067841;28;20475;-58
2023/02/07 06:11:03;;;;;;;13.48;6.78;;;;;;;-4.71;100.00;100744.25;5073291;28;20433;-58
2023/02/07 06:13:28;;;;;;;14.63;7.38;;;;;;;-4.76;100.00;100751.50;5074864;28;20024;-58
2023/02/07 06:15:54;;;;;;;14.65;6.55;;;;;;;-4.73;100.00;100744.28;5068076;28;20038;-58
2023/02/07 06:18:19;;;;;;;13.80;7.28;;;;;;;-4.66;100.00;100744.94;5067553;28;20077;-58
2023/02/07 06:20:44;;;;;;;15.20;7.88;;;;;;;-4.76;100.00;100751.50;5070093;28;20553;-58
2023/02/07 06:23:10;;;;;;;12.90;6.70;;;;;;;-4.84;100.00;100730.66;5068446;28;20031;-58
2023/02/07 06:25:35;;;;;;;16.23;6.88;;;;;;;-4.82;100.00;100744.66;5076513;28;20056;-58
2023/02/07 06:28:00;;;;;;;16.58;7.40;;;;;;;-5.00;100.00;100754.13;5069495;28;20134;-58
2023/02/07 06:30:26;;;;;;;13.30;7.05;;;;;;;-5.08;100.00;100749.13;5063815;28;20552;-58
2023/02/07 06:32:51;;;;;;;14.02;6.65;;;;;;;-4.96;100.00;100765.41;5069035;28;20395;-58
2023/02/07 06:35:17;;;;;;;15.10;7.13;;;;;;;-4.97;100.00;100759.28;5069604;28;20093;-58
2023/02/07 06:37:42;;;;;;;14.98;7.03;;;;;;;-4.83;100.00;100764.03;5072073;28;20478;-58
2023/02/07 06:40:08;;;;;;;11.35;6.00;;;;;;;-4.76;100.00;100762.91;5077484;28;20028;-58
2023/02/07 06:42:33;;;;;;;14.82;6.57;;;;;;;-4.77;100.00;100770.88;5072027;28;20024;-58
2023/02/07 06:44:59;;;;;;;14.18;6.72;;;;;;;-4.77;100.00;100761.16;5076851;28;20043;-58
2023/02/07 06:47:24;;;;;;;16.77;6.57;;;;;;;-4.66;100.00;100766.91;5078164;28;20020;-58
2023/02/07 06:49:50;;;;;;;12.57;6.18;;;;;;;-4.63;100.00;100777.38;5076031;28;20028;-58
2023/02/07 06:52:15;;;;;;;13.48;6.03;;;;;;;-4.62;100.00;100787.00;5078322;28;20016;-58
2023/02/07 06:54:40;;;;;;;14.57;6.38;;;;;;;-4.67;100.00;100788.94;5066404;28;20529;-58
2023/02/07 06:57:06;;;;;;;13.07;5.88;;;;;;;-4.67;100.00;100788.09;5077513;28;20031;-58
2023/02/07 06:59:31;;;;;;;12.20;5.88;;;;;;;-4.66;100.00;100790.69;5075450;28;20020;-58
2023/02/07 07:01:59;;;;;;;14.50;6.50;;;;;;;-4.65;100.00;100789.75;5076970;28;20099;-58
2023/02/07 07:04:24;;;;;;;13.55;6.53;;;;;;;-4.65;100.00;100787.13;5077515;28;20027;-58
2023/02/07 07:06:50;;;;;;;17.85;6.35;;;;;;;-4.52;100.00;100797.22;5077764;28;20061;-58
2023/02/07 07:09:15;;;;;;;11.82;5.90;;;;;;;-4.45;100.00;100801.38;5074926;28;20055;-58
2023/02/07 07:11:42;;;;;;;15.07;6.18;;;;;;;-4.38;100.00;100789.63;5069862;28;20071;-59
2023/02/07 07:14:09;;;;;;;13.55;5.43;;;;;;;-4.36;100.00;100801.00;5077161;28;20036;-58
2023/02/07 07:16:35;;;;;;;13.57;5.90;;;;;;;-4.25;100.00;100796.13;5058270;28;20032;-58
2023/02/07 07:19:00;;;;;;;13.10;5.82;;;;;;;-4.20;100.00;100799.47;5073735;28;20024;-58
2023/02/07 07:21:27;;;;;;;10.88;5.43;;;;;;;-4.11;100.00;100797.38;5069848;28;20111;-58
2023/02/07 07:23:53;;;;;;;15.00;6.22;;;;;;;-3.33;100.00;100808.25;5075259;28;20443;-58
2023/02/07 07:26:18;;;;;;;14.52;5.95;;;;;;;-0.92;100.00;100793.19;5071048;28;20091;-58
2023/02/07 07:28:44;;;;;;;12.18;5.95;;;;;;;1.38;100.00;100790.59;5074221;28;20497;-58
2023/02/07 07:31:09;;;;;;;12.13;5.88;;;;;;;2.91;84.84;100784.19;5070446;28;20077;-58
2023/02/07 07:33:35;;;;;;;12.45;5.30;;;;;;;3.88;73.52;100783.56;5069771;28;20135;-59
2023/02/07 07:36:02;;;;;;;11.73;6.05;;;;;;;4.41;65.71;100784.09;5070849;28;20050;-58
2023/02/07 07:38:27;;;;;;;13.07;5.85;;;;;;;5.45;60.76;100775.22;5063766;28;20105;-58
2023/02/07 07:40:53;;;;;;;12.40;5.38;;;;;;;6.02;59.48;100766.13;5074103;28;20059;-59
2023/02/07 07:43:19;;;;;;;10.95;5.10;;;;;;;6.53;57.01;100762.78;5077093;28;20039;-59
2023/02/07 07:45:45;;;;;;;8.90;5.45;;;;;;;7.23;55.96;100765.78;5074661;28;20052;-59
2023/02/07 07:48:11;;;;;;;11.82;5.38;;;;;;;7.38;53.18;100766.28;5077520;28;20034;-59
2023/02/07 07:50:36;;;;;;;10.30;5.90;;;;;;;7.20;53.92;100771.44;5076220;28;20016;-59
2023/02/07 07:53:01;;;;;;;11.57;7.10;;;;;;;7.49;52.98;100776.97;5083051;28;20024;-59
2023/02/07 07:55:27;;;;;;;11.60;6.40;;;;;;;8.39;53.04;100783.31;5065701;28;20082;-59
2023/02/07 07:57:52;;;;;;;12.10;6.50;;;;;;;8.41;52.30;100794.84;5070900;28;20024;-59
2023/02/07 08:00:18;;;;;;;11.43;5.90;;;;;;;8.91;50.28;100794.72;5070242;28;20103;-60
2023/02/07 08:02:43;;;;;;;10.80;6.47;;;;;;;9.30;49.83;100794.63;5074788;28;20032;-59
2023/02/07 08:05:10;;;;;;;11.48;6.93;;;;;;;9.77;47.47;100792.78;5063818;28;20020;-60
2023/02/07 08:07:35;;;;;;;11.32;7.22;;;;;;;10.21;46.35;100795.66;5064907;28;20026;-59
2023/02/07 08:10:01;;;;;;;12.60;6.43;;;;;;;9.90;46.61;100810.47;5074724;28;20109;-59
2023/02/07 08:12:26;;;;;;;11.27;6.93;;;;;;;9.06;47.12;100816.72;5071399;28;20031;-59
2023/02/07 08:14:51;;;;;;;9.80;6.20;;;;;;;8.91;47.39;100830.66;5070124;28;20154;-60
2023/02/07 08:17:17;;;;;;;9.48;5.82;;;;;;;9.29;46.50;100830.75;5064887;28;20071;-59
2023/02/07 08:19:42;;;;;;;10.25;6.03;;;;;;;9.54;45.86;100834.69;5066579;28;20024;-59
2023/02/07 08:22:07;;;;;;;9.00;5.82;;;;;;;9.36;46.32;100829.19;5072321;28;20020;-59
2023/02/07 08:24:34;;;;;;;11.55;5.85;;;;;;;8.79;47.03;100826.41;5076889;28;20018;-59
2023/02/07 08:27:00;;;;;;;11.68;5.65;;;;;;;8.42;47.25;100828.94;5076691;28;20028;-59
2023/02/07 08:29:25;;;;;;;11.55;5.75;;;;;;;8.95;46.92;100826.66;5072911;28;20031;-59
2023/02/07 08:31:50;;;;;;;9.85;6.43;;;;;;;9.60;46.35;100823.28;5073297;28;20067;-59
2023/02/07 08:34:17;;;;;;;14.27;6.55;;;;;;;10.33;45.29;100809.84;5076269;28;20360;-60
2023/02/07 08:36:43;;;;;;;12.32;6.65;;;;;;;12.11;43.80;100815.09;5075052;28;20028;-60
2023/02/07 08:39:08;;;;;;;11.77;6.20;;;;;;;11.63;42.15;100801.94;5078659;28;20016;-60
2023/02/07 08:41:33;;;;;;;9.95;6.18;;;;;;;11.18;42.47;100804.84;5073483;28;20387;-60
2023/02/07 08:43:59;;;;;;;9.90;6.90;;;;;;;11.95;40.81;100791.47;5073742;28;20020;-60
2023/02/07 08:46:24;;;;;;;11.27;6.20;;;;;;;10.71;42.55;100797.88;5073598;28;20489;-59
2023/02/07 08:48:49;;;;;;;11.88;6.50;;;;;;;11.39;42.67;100799.06;5071574;28;20036;-59
2023/02/07 08:51:15;;;;;;;10.27;6.50;;;;;;;10.93;41.90;100812.81;5075047;28;20031;-60
2023/02/07 08:53:40;;;;;;;12.00;6.60;;;;;;;12.44;41.32;100811.47;5076977;28;20020;-61
2023/02/07 08:56:07;;;;;;;10.15;5.80;;;;;;;13.03;41.05;100815.94;5079678;28;20020;-60
2023/02/07 08:58:32;;;;;;;9.82;6.13;;;;;;;13.93;39.53;100808.47;5076981;28;20028;-60
2023/02/07 09:00:58;;;;;;;12.88;6.32;;;;;;;14.91;37.84;100793.44;5068256;28;20535;-61
2023/02/07 09:03:23;;;;;;;7.35;6.10;;;;;;;15.91;36.34;100804.06;5074997;28;20054;-60
2023/02/07 09:05:48;;;;;;;9.85;6.25;;;;;;;14.23;36.04;100806.81;5071340;28;20191;-60
2023/02/07 09:08:17;;;;;;;10.50;6.22;;;;;;;13.73;36.93;100807.19;5117285;22;20333;-61
2023/02/07 09:10:43;;;;;;;10.25;6.13;;;;;;;12.40;39.40;100815.50;5072644;28;20538;-62
2023/02/07 09:13:08;;;;;;;9.10;6.57;;;;;;;12.80;37.90;100810.31;5076972;28;20043;-62
2023/02/07 09:15:39;;;;;;;8.90;6.07;;;;;;;11.51;39.29;100805.94;5079914;28;20040;-62
2023/02/07 09:18:04;;;;;;;10.55;6.30;;;;;;;12.64;38.54;100806.56;5056686;28;20032;-62
2023/02/07 09:20:30;;;;;;;10.13;6.15;;;;;;;13.40;38.42;100804.53;5076236;28;20102;-62
2023/02/07 09:25:39;;;;;;;9.80;5.90;;;;;;;13.54;36.95;100797.53;5070148;28;20478;-62
2023/02/07 09:28:04;;;;;;;10.80;6.88;;;;;;;12.40;38.57;100807.34;5084724;28;20130;-62
2023/02/07 09:30:30;;;;;;;11.95;6.60;;;;;;;11.54;40.18;100786.63;5069737;28;20028;-62
2023/02/07 09:32:57;;;;;;;8.70;6.20;;;;;;;12.16;39.63;100807.31;5058786;28;20033;-62
2023/02/07 09:35:22;;;;;;;10.20;6.78;;;;;;;11.96;40.01;100806.72;5071875;28;20119;-62
2023/02/07 09:37:47;;;;;;;13.02;7.55;;;;;;;12.88;38.80;100794.84;5072707;28;20428;-62
2023/02/07 09:40:18;;;;;;;11.60;6.70;;;;;;;12.89;38.30;100804.72;5072072;28;20110;-62
2023/02/07 09:42:56;;;;;;;12.63;7.28;;;;;;;12.63;38.97;100802.16;5072152;28;20035;-62
2023/02/07 09:45:29;;;;;;;12.00;6.60;;;;;;;12.75;38.55;100799.94;5070664;28;20507;-61
2023/02/07 09:48:10;;;;;;;10.25;6.00;;;;;;;11.56;40.09;100800.03;5077331;28;20093;-62
2023/02/07 09:50:45;;;;;;;9.65;6.57;;;;;;;11.23;41.20;100812.53;5061151;28;20477;-63
2023/02/07 09:53:39;;;;;;;12.27;7.22;;;;;;;13.59;37.69;100793.25;5072713;28;20056;-67
2023/02/07 09:56:05;;;;;;;9.32;6.22;;;;;;;13.46;38.07;100805.72;5065281;28;20051;-68
2023/02/07 09:58:50;;;;;;;9.13;6.47;;;;;;;14.02;37.21;100810.13;5075873;28;20078;-67
2023/02/07 10:01:27;;;;;;;12.35;7.18;;;;;;;13.48;37.64;100809.09;5075979;28;20116;-67
2023/02/07 10:03:59;;;;;;;9.32;6.40;;;;;;;13.90;36.66;100807.97;5069076;28;20016;-67
2023/02/07 10:06:26;;;;;;;9.70;6.50;;;;;;;13.09;37.04;100826.09;5063491;28;20020;-67
2023/02/07 10:08:55;;;;;;;12.48;8.00;;;;;;;13.72;37.41;100827.25;5065310;28;20037;-67
2023/02/07 10:11:37;;;;;;;9.93;6.40;;;;;;;14.72;36.10;100821.19;5073012;28;20032;-67
2023/02/07 10:14:29;;;;;;;11.10;6.47;;;;;;;14.07;36.64;100828.66;5066466;28;20114;-67
2023/02/07 10:17:20;;;;;;;9.07;6.00;;;;;;;13.77;36.78;100831.13;5075193;28;20037;-68
2023/02/07 10:20:18;;;;;;;10.70;6.20;;;;;;;13.23;37.84;100830.00;5070578;28;20123;-67
2023/02/07 10:22:58;;;;;;;10.90;6.25;;;;;;;12.72;37.58;100831.00;5061403;28;20032;-67
2023/02/07 10:25:32;;;;;;;9.63;6.22;;;;;;;12.03;39.26;100838.44;5070409;28;20025;-67
2023/02/07 10:28:24;;;;;;;12.02;6.63;;;;;;;12.18;38.81;100822.41;5070766;28;20028;-67
2023/02/07 10:30:53;;;;;;;10.52;6.45;;;;;;;12.74;38.43;100822.69;5079543;28;20031;-67
2023/02/07 10:33:22;;;;;;;8.68;5.95;;;;;;;14.22;36.41;100815.13;5062952;28;20021;-67
2023/02/07 10:35:49;;;;;;;;;;;;;;;14.69;35.00;100817.78;5044944;28;20032;-67
2023/02/07 10:38:32;;;;;;;9.73;5.15;;;;;;;13.05;36.51;100827.47;5068428;28;19919;-67
2023/02/07 10:41:10;;;;;;;8.00;5.68;;;;;;;14.18;35.59;100828.25;5082274;28;20537;-67
2023/02/07 10:43:37;;;;;;;9.82;5.35;;;;;;;13.58;34.68;100821.50;5071490;28;20017;-67
2023/02/07 10:46:08;;;;;;;9.05;5.10;;;;;;;14.76;34.52;100815.19;5070642;28;20034;-67
2023/02/07 10:48:35;;;;;;;8.52;5.70;;;;;;;15.33;33.93;100819.31;5057649;28;20048;-67
2023/02/07 10:51:19;;;;;;;14.20;6.85;;;;;;;15.44;33.79;100818.88;5063884;28;20086;-67
2023/02/07 10:54:00;;;;;;;8.85;5.20;;;;;;;14.93;33.82;100813.16;5072137;28;20024;-67
2023/02/07 10:56:27;;;;;;;8.35;4.90;;;;;;;17.27;32.24;100813.34;5067520;28;20032;-67
2023/02/07 10:58:55;;;;;;;9.70;5.05;;;;;;;17.33;31.84;100808.13;5083076;28;20055;-67
2023/02/07 11:01:23;;;;;;;7.72;4.53;;;;;;;16.81;31.61;100802.81;5082945;28;20391;-67
2023/02/07 11:03:49;;;;;;;8.97;4.90;;;;;;;18.29;30.58;100805.56;5054886;28;20025;-69
2023/02/07 11:06:24;;;;;;;7.13;4.90;;;;;;;17.96;30.45;100804.34;5059751;28;20387;-67
2023/02/07 11:08:49;;;;;;;8.60;5.30;;;;;;;18.14;30.71;100811.19;5060095;28;20063;-68
2023/02/07 11:11:18;;;;;;;6.22;4.07;;;;;;;20.03;30.31;100802.69;5064233;28;20111;-68
2023/02/07 11:13:51;;;;;;;7.33;5.03;;;;;;;20.24;28.95;100807.06;5066148;28;20024;-69
2023/02/07 11:16:18;;;;;;;5.90;4.15;;;;;;;18.74;28.46;100805.91;5069076;28;20282;-74
2023/02/07 11:18:52;;;;;;;5.70;4.00;;;;;;;19.80;27.47;100794.94;5082814;28;20062;-68
2023/02/07 11:21:23;;;;;;;6.75;4.03;;;;;;;18.25;28.24;100790.56;5073575;28;20072;-68
2023/02/07 11:23:52;;;;;;;6.93;4.15;;;;;;;18.19;28.14;100800.47;5079374;28;20081;-67
2023/02/07 11:26:20;;;;;;;7.13;4.50;;;;;;;17.68;29.52;100798.03;5072033;28;20036;-68
2023/02/07 11:28:51;;;;;;;6.05;4.60;;;;;;;19.43;29.58;100793.72;5073956;28;20263;-67